Terminal Aerodrome Forecast
Issued by NWS

Home | Current Version | Previous Version | Graphics & Text | Print | Product List | Glossary On
Versions: 1 2 3 4 5 6 7 8 9 10 11 12
000
FTUS43 KICT 020522
TAFRSL
TAF
KRSL 020522Z 0206/0306 18015G22KT P6SM SCT090
      TEMPO 0206/0210 BKN090
     FM021500 18019G27KT P6SM SCT090
     FM030200 17013KT P6SM BKN090=

USA.gov is the U.S. government's official web portal to all federal, state and local government web resources and services.